WAT3650 KPDX-KSMF
Flight info
| Callsign | WAT3650 |
|---|---|
| Flight time | 1h 7m |
| Altitude | 37000 |
| Route | HRMNS6 HYJOE LMT TUDOR2 |
| Aircraft | MD83/M-SDFGIRWY/S |
Departure
| Time | 2026-05-08 03:59 |
|---|---|
| Airport | Portland International Airport (KPDX) |
Arrival
| Time | 2026-05-08 05:06 |
|---|---|
| Airport | Sacramento International Airport (KSMF) |
| Time | Latitude | Longitude | Altitude | Speed | Heading |
|---|---|---|---|---|---|
| 2026-05-08 03:07 | 45.58986 | -122.59059 | 41 ft | 0 kts | 224° |
| 2026-05-08 03:45 | 45.58997 | -122.59044 | 41 ft | 2 kts | 224° |
| 2026-05-08 03:45 | 45.59013 | -122.59026 | 41 ft | 4 kts | 203° |
| 2026-05-08 03:46 | 45.59036 | -122.59011 | 41 ft | 4 kts | 197° |
| 2026-05-08 03:46 | 45.59054 | -122.59011 | 41 ft | 4 kts | 142° |
| 2026-05-08 03:46 | 45.59067 | -122.59037 | 41 ft | 4 kts | 119° |
| 2026-05-08 03:46 | 45.59074 | -122.59054 | 41 ft | 0 kts | 119° |
| 2026-05-08 03:49 | 45.59060 | -122.59019 | 41 ft | 8 kts | 119° |
| 2026-05-08 03:49 | 45.59023 | -122.58927 | 41 ft | 13 kts | 123° |
| 2026-05-08 03:49 | 45.58968 | -122.58806 | 41 ft | 10 kts | 117° |
| 2026-05-08 03:50 | 45.58953 | -122.58711 | 41 ft | 10 kts | 84° |
| 2026-05-08 03:50 | 45.58962 | -122.58601 | 41 ft | 12 kts | 84° |
| 2026-05-08 03:50 | 45.58938 | -122.58487 | 41 ft | 13 kts | 121° |
| 2026-05-08 03:50 | 45.58892 | -122.58371 | 41 ft | 14 kts | 118° |
| 2026-05-08 03:51 | 45.58843 | -122.58243 | 41 ft | 15 kts | 119° |
| 2026-05-08 03:51 | 45.58790 | -122.58107 | 41 ft | 16 kts | 119° |
| 2026-05-08 03:51 | 45.58733 | -122.57962 | 41 ft | 17 kts | 119° |
| 2026-05-08 03:51 | 45.58673 | -122.57808 | 41 ft | 18 kts | 119° |
| 2026-05-08 03:52 | 45.58611 | -122.57649 | 40 ft | 19 kts | 119° |
| 2026-05-08 03:52 | 45.58548 | -122.57492 | 40 ft | 17 kts | 119° |
| 2026-05-08 03:52 | 45.58495 | -122.57355 | 40 ft | 15 kts | 118° |
| 2026-05-08 03:52 | 45.58451 | -122.57239 | 40 ft | 12 kts | 118° |
| 2026-05-08 03:53 | 45.58413 | -122.57146 | 40 ft | 10 kts | 119° |
| 2026-05-08 03:53 | 45.58388 | -122.57082 | 40 ft | 12 kts | 119° |
| 2026-05-08 03:53 | 45.58345 | -122.56971 | 40 ft | 14 kts | 119° |
| 2026-05-08 03:53 | 45.58293 | -122.56839 | 40 ft | 16 kts | 119° |
| 2026-05-08 03:54 | 45.58273 | -122.56762 | 40 ft | 0 kts | 88° |
| 2026-05-08 03:57 | 45.58273 | -122.56754 | 40 ft | 4 kts | 82° |
| 2026-05-08 03:57 | 45.58306 | -122.56700 | 40 ft | 8 kts | 31° |
| 2026-05-08 03:57 | 45.58362 | -122.56696 | 40 ft | 8 kts | 326° |
| 2026-05-08 03:57 | 45.58378 | -122.56732 | 40 ft | 1 kts | 295° |
| 2026-05-08 03:58 | 45.58390 | -122.56766 | 40 ft | 10 kts | 296° |
| 2026-05-08 03:58 | 45.58516 | -122.57091 | 40 ft | 74 kts | 300° |
| 2026-05-08 03:58 | 45.58896 | -122.58052 | 41 ft | 145 kts | 299° |
| 2026-05-08 03:58 | 45.59449 | -122.59506 | 402 ft | 176 kts | 297° |
| 2026-05-08 03:59 | 45.59993 | -122.60998 | 1500 ft | 166 kts | 297° |
| 2026-05-08 03:59 | 45.60501 | -122.62617 | 2010 ft | 191 kts | 292° |
| 2026-05-08 03:59 | 45.60996 | -122.64412 | 2709 ft | 201 kts | 291° |
| 2026-05-08 03:59 | 45.61453 | -122.66364 | 3413 ft | 213 kts | 286° |
| 2026-05-08 04:00 | 45.62022 | -122.68397 | 4015 ft | 229 kts | 297° |
| 2026-05-08 04:00 | 45.62850 | -122.70416 | 4642 ft | 242 kts | 301° |
| 2026-05-08 04:00 | 45.63757 | -122.72519 | 5254 ft | 253 kts | 300° |
| 2026-05-08 04:00 | 45.64695 | -122.74703 | 5904 ft | 262 kts | 300° |
| 2026-05-08 04:01 | 45.65651 | -122.76936 | 6653 ft | 264 kts | 300° |
| 2026-05-08 04:01 | 45.66608 | -122.79194 | 7324 ft | 267 kts | 299° |
| 2026-05-08 04:01 | 45.67256 | -122.81668 | 7972 ft | 268 kts | 274° |
| 2026-05-08 04:01 | 45.67017 | -122.84300 | 8655 ft | 270 kts | 255° |
| 2026-05-08 04:02 | 45.66468 | -122.86881 | 9310 ft | 273 kts | 253° |
| 2026-05-08 04:02 | 45.65856 | -122.89464 | 9939 ft | 276 kts | 246° |
| 2026-05-08 04:02 | 45.64660 | -122.91627 | 10459 ft | 285 kts | 218° |
| 2026-05-08 04:02 | 45.62794 | -122.92755 | 10870 ft | 306 kts | 191° |
| 2026-05-08 04:03 | 45.60583 | -122.92612 | 11041 ft | 334 kts | 168° |
| 2026-05-08 04:03 | 45.55953 | -122.90430 | 11825 ft | 358 kts | 163° |
| 2026-05-08 04:03 | 45.53629 | -122.89123 | 12498 ft | 362 kts | 155° |
| 2026-05-08 04:04 | 45.51470 | -122.87325 | 13154 ft | 366 kts | 150° |
| 2026-05-08 04:04 | 45.49317 | -122.85311 | 13754 ft | 372 kts | 149° |
| 2026-05-08 04:04 | 45.47140 | -122.83275 | 14333 ft | 376 kts | 149° |
| 2026-05-08 04:04 | 45.44927 | -122.81249 | 14939 ft | 379 kts | 150° |
| 2026-05-08 04:05 | 45.42688 | -122.79256 | 15541 ft | 382 kts | 151° |
| 2026-05-08 04:05 | 45.40419 | -122.77256 | 16110 ft | 386 kts | 150° |
| 2026-05-08 04:05 | 45.38152 | -122.75175 | 16671 ft | 390 kts | 150° |
| 2026-05-08 04:05 | 45.35868 | -122.73038 | 17234 ft | 394 kts | 149° |
| 2026-05-08 04:06 | 45.33578 | -122.70879 | 17822 ft | 397 kts | 149° |
| 2026-05-08 04:06 | 45.31268 | -122.68697 | 18386 ft | 401 kts | 149° |
| 2026-05-08 04:06 | 45.28932 | -122.66483 | 18866 ft | 405 kts | 149° |
| 2026-05-08 04:06 | 45.26586 | -122.64256 | 19385 ft | 407 kts | 149° |
| 2026-05-08 04:07 | 45.24228 | -122.62012 | 19918 ft | 409 kts | 149° |
| 2026-05-08 04:07 | 45.21850 | -122.59749 | 20426 ft | 413 kts | 149° |
| 2026-05-08 04:07 | 45.19482 | -122.57496 | 20906 ft | 416 kts | 149° |
| 2026-05-08 04:07 | 45.17071 | -122.55199 | 21404 ft | 419 kts | 149° |
| 2026-05-08 04:08 | 45.14641 | -122.52884 | 21909 ft | 422 kts | 149° |
| 2026-05-08 04:08 | 45.12190 | -122.50549 | 22424 ft | 425 kts | 149° |
| 2026-05-08 04:08 | 45.09723 | -122.48200 | 22930 ft | 428 kts | 149° |
| 2026-05-08 04:08 | 45.07237 | -122.45836 | 23429 ft | 432 kts | 149° |
| 2026-05-08 04:09 | 45.04733 | -122.43458 | 23905 ft | 435 kts | 149° |
| 2026-05-08 04:09 | 45.02210 | -122.41067 | 24353 ft | 437 kts | 149° |
| 2026-05-08 04:09 | 44.99677 | -122.38674 | 24786 ft | 440 kts | 149° |
| 2026-05-08 04:09 | 44.97117 | -122.36264 | 25169 ft | 444 kts | 149° |
| 2026-05-08 04:10 | 44.94538 | -122.33844 | 25594 ft | 446 kts | 149° |
| 2026-05-08 04:10 | 44.91945 | -122.31422 | 26015 ft | 449 kts | 149° |
| 2026-05-08 04:10 | 44.89353 | -122.29022 | 26389 ft | 452 kts | 150° |
| 2026-05-08 04:10 | 44.86558 | -122.27024 | 26778 ft | 450 kts | 163° |
| 2026-05-08 04:11 | 44.83558 | -122.25784 | 27209 ft | 449 kts | 169° |
| 2026-05-08 04:11 | 44.80501 | -122.24758 | 27541 ft | 453 kts | 171° |
| 2026-05-08 04:11 | 44.77419 | -122.23772 | 27956 ft | 456 kts | 171° |
| 2026-05-08 04:11 | 44.74308 | -122.22811 | 28334 ft | 459 kts | 171° |
| 2026-05-08 04:12 | 44.71179 | -122.21807 | 28719 ft | 462 kts | 169° |
| 2026-05-08 04:12 | 44.68051 | -122.20661 | 29103 ft | 466 kts | 168° |
| 2026-05-08 04:12 | 44.64915 | -122.19461 | 29443 ft | 469 kts | 167° |
| 2026-05-08 04:12 | 44.61752 | -122.18237 | 29786 ft | 473 kts | 167° |
| 2026-05-08 04:13 | 44.58566 | -122.17049 | 30166 ft | 475 kts | 168° |
| 2026-05-08 04:13 | 44.55354 | -122.15914 | 30539 ft | 475 kts | 169° |
| 2026-05-08 04:13 | 44.52188 | -122.14817 | 31026 ft | 472 kts | 169° |
| 2026-05-08 04:13 | 44.49012 | -122.13723 | 31551 ft | 469 kts | 169° |
| 2026-05-08 04:14 | 44.45844 | -122.12639 | 32043 ft | 467 kts | 169° |
| 2026-05-08 04:14 | 44.42694 | -122.11566 | 32446 ft | 466 kts | 169° |
| 2026-05-08 04:14 | 44.39540 | -122.10544 | 32822 ft | 464 kts | 174° |
| 2026-05-08 04:14 | 44.36340 | -122.10198 | 33191 ft | 460 kts | 181° |
| 2026-05-08 04:15 | 44.33148 | -122.09838 | 33626 ft | 460 kts | 174° |
| 2026-05-08 04:15 | 44.30002 | -122.08965 | 33999 ft | 462 kts | 168° |
| 2026-05-08 04:15 | 44.26908 | -122.07740 | 34327 ft | 462 kts | 165° |
| 2026-05-08 04:15 | 44.23853 | -122.06360 | 34648 ft | 461 kts | 164° |
| 2026-05-08 04:16 | 44.20807 | -122.04912 | 34932 ft | 461 kts | 163° |
| 2026-05-08 04:16 | 44.17813 | -122.03477 | 35224 ft | 460 kts | 163° |
| 2026-05-08 04:16 | 44.14787 | -122.02042 | 35541 ft | 459 kts | 164° |
| 2026-05-08 04:16 | 44.11762 | -122.00629 | 35841 ft | 457 kts | 164° |
| 2026-05-08 04:17 | 44.08736 | -121.99240 | 36143 ft | 456 kts | 165° |
| 2026-05-08 04:17 | 44.05722 | -121.97873 | 36459 ft | 455 kts | 165° |
| 2026-05-08 04:17 | 44.02710 | -121.96517 | 36764 ft | 453 kts | 165° |
| 2026-05-08 04:17 | 43.99703 | -121.95167 | 36935 ft | 455 kts | 165° |
| 2026-05-08 04:18 | 43.93648 | -121.92449 | 37044 ft | 463 kts | 165° |
| 2026-05-08 04:18 | 43.87539 | -121.89699 | 37062 ft | 459 kts | 165° |
| 2026-05-08 04:19 | 43.84463 | -121.88627 | 37078 ft | 452 kts | 176° |
| 2026-05-08 04:19 | 43.81347 | -121.88207 | 37069 ft | 449 kts | 180° |
| 2026-05-08 04:19 | 43.75118 | -121.87763 | 37063 ft | 448 kts | 180° |
| 2026-05-08 04:20 | 43.68869 | -121.87292 | 37065 ft | 450 kts | 180° |
| 2026-05-08 04:20 | 43.62608 | -121.86709 | 37067 ft | 451 kts | 179° |
| 2026-05-08 04:21 | 43.56350 | -121.86075 | 37063 ft | 451 kts | 179° |
| 2026-05-08 04:21 | 43.50114 | -121.85454 | 37061 ft | 452 kts | 179° |
| 2026-05-08 04:22 | 43.43830 | -121.84840 | 37056 ft | 451 kts | 179° |
| 2026-05-08 04:22 | 43.37575 | -121.84238 | 37057 ft | 450 kts | 179° |
| 2026-05-08 04:23 | 43.31365 | -121.83643 | 37059 ft | 450 kts | 179° |
| 2026-05-08 04:23 | 43.25103 | -121.83043 | 37052 ft | 450 kts | 179° |
| 2026-05-08 04:24 | 43.18842 | -121.82443 | 37059 ft | 450 kts | 179° |
| 2026-05-08 04:24 | 43.12588 | -121.81845 | 37056 ft | 450 kts | 178° |
| 2026-05-08 04:25 | 43.06333 | -121.81248 | 37059 ft | 450 kts | 179° |
| 2026-05-08 04:25 | 43.00104 | -121.80657 | 37061 ft | 451 kts | 178° |
| 2026-05-08 04:26 | 42.93825 | -121.80066 | 37059 ft | 452 kts | 178° |
| 2026-05-08 04:26 | 42.87538 | -121.79474 | 37060 ft | 453 kts | 178° |
| 2026-05-08 04:27 | 42.81246 | -121.78881 | 37058 ft | 453 kts | 178° |
| 2026-05-08 04:27 | 42.74990 | -121.78293 | 37060 ft | 453 kts | 178° |
| 2026-05-08 04:28 | 42.68700 | -121.77702 | 37058 ft | 452 kts | 178° |
| 2026-05-08 04:28 | 42.62428 | -121.77116 | 37060 ft | 452 kts | 178° |
| 2026-05-08 04:29 | 42.56152 | -121.76530 | 37059 ft | 452 kts | 178° |
| 2026-05-08 04:29 | 42.49882 | -121.75950 | 37063 ft | 452 kts | 178° |
| 2026-05-08 04:30 | 42.43597 | -121.75366 | 37076 ft | 453 kts | 178° |
| 2026-05-08 04:30 | 42.37350 | -121.74788 | 37095 ft | 453 kts | 178° |
| 2026-05-08 04:31 | 42.31056 | -121.74204 | 37103 ft | 453 kts | 178° |
| 2026-05-08 04:31 | 42.24741 | -121.73621 | 37124 ft | 454 kts | 177° |
| 2026-05-08 04:32 | 42.18428 | -121.73039 | 37125 ft | 455 kts | 177° |
| 2026-05-08 04:32 | 42.12110 | -121.72609 | 37125 ft | 454 kts | 180° |
| 2026-05-08 04:33 | 42.05778 | -121.72637 | 37123 ft | 454 kts | 182° |
| 2026-05-08 04:33 | 41.99491 | -121.72699 | 37110 ft | 455 kts | 181° |
| 2026-05-08 04:34 | 41.93164 | -121.72692 | 37097 ft | 454 kts | 181° |
| 2026-05-08 04:34 | 41.86856 | -121.72647 | 37086 ft | 452 kts | 180° |
| 2026-05-08 04:35 | 41.80557 | -121.72603 | 37077 ft | 453 kts | 180° |
| 2026-05-08 04:35 | 41.74251 | -121.72569 | 37078 ft | 453 kts | 180° |
| 2026-05-08 04:36 | 41.67933 | -121.72537 | 37084 ft | 453 kts | 180° |
| 2026-05-08 04:36 | 41.61613 | -121.72506 | 37091 ft | 454 kts | 180° |
| 2026-05-08 04:37 | 41.55289 | -121.72474 | 37092 ft | 454 kts | 180° |
| 2026-05-08 04:37 | 41.49007 | -121.72442 | 37096 ft | 453 kts | 180° |
| 2026-05-08 04:38 | 41.42706 | -121.72411 | 37103 ft | 452 kts | 180° |
| 2026-05-08 04:38 | 41.37473 | -121.72386 | 37106 ft | 452 kts | 180° |
| 2026-05-08 04:39 | 41.31172 | -121.72356 | 37103 ft | 453 kts | 180° |
| 2026-05-08 04:39 | 41.24862 | -121.72326 | 37095 ft | 453 kts | 180° |
| 2026-05-08 04:40 | 41.18549 | -121.72295 | 37086 ft | 454 kts | 180° |
| 2026-05-08 04:40 | 41.12228 | -121.72265 | 37077 ft | 454 kts | 180° |
| 2026-05-08 04:41 | 41.05898 | -121.72234 | 37073 ft | 454 kts | 180° |
| 2026-05-08 04:41 | 40.99588 | -121.72204 | 37069 ft | 453 kts | 180° |
| 2026-05-08 04:42 | 40.93287 | -121.72177 | 37065 ft | 452 kts | 180° |
| 2026-05-08 04:42 | 40.86989 | -121.72146 | 37062 ft | 453 kts | 180° |
| 2026-05-08 04:43 | 40.80666 | -121.72116 | 37058 ft | 454 kts | 180° |
| 2026-05-08 04:43 | 40.74340 | -121.72087 | 37060 ft | 454 kts | 180° |
| 2026-05-08 04:44 | 40.68057 | -121.72057 | 37036 ft | 455 kts | 180° |
| 2026-05-08 04:44 | 40.64866 | -121.72043 | 36637 ft | 459 kts | 180° |
| 2026-05-08 04:44 | 40.61673 | -121.72029 | 36181 ft | 458 kts | 180° |
| 2026-05-08 04:45 | 40.58489 | -121.72014 | 35623 ft | 456 kts | 180° |
| 2026-05-08 04:45 | 40.55315 | -121.72001 | 35016 ft | 456 kts | 180° |
| 2026-05-08 04:45 | 40.52139 | -121.71990 | 34358 ft | 457 kts | 180° |
| 2026-05-08 04:45 | 40.48947 | -121.71979 | 33625 ft | 460 kts | 180° |
| 2026-05-08 04:46 | 40.45739 | -121.71965 | 32905 ft | 461 kts | 180° |
| 2026-05-08 04:46 | 40.42524 | -121.71904 | 32218 ft | 463 kts | 178° |
| 2026-05-08 04:46 | 40.39299 | -121.71682 | 31534 ft | 464 kts | 176° |
| 2026-05-08 04:46 | 40.36114 | -121.71379 | 30812 ft | 466 kts | 175° |
| 2026-05-08 04:47 | 40.32880 | -121.71060 | 30085 ft | 467 kts | 175° |
| 2026-05-08 04:47 | 40.29630 | -121.70735 | 29231 ft | 467 kts | 175° |
| 2026-05-08 04:47 | 40.26395 | -121.70419 | 28434 ft | 463 kts | 175° |
| 2026-05-08 04:47 | 40.23197 | -121.70123 | 27689 ft | 458 kts | 176° |
| 2026-05-08 04:48 | 40.20029 | -121.69845 | 26976 ft | 453 kts | 176° |
| 2026-05-08 04:48 | 40.16905 | -121.69580 | 26279 ft | 448 kts | 176° |
| 2026-05-08 04:48 | 40.13810 | -121.69320 | 25577 ft | 444 kts | 176° |
| 2026-05-08 04:48 | 40.10743 | -121.69065 | 24886 ft | 440 kts | 176° |
| 2026-05-08 04:49 | 40.07739 | -121.68813 | 24200 ft | 437 kts | 176° |
| 2026-05-08 04:49 | 40.04718 | -121.68558 | 23496 ft | 434 kts | 176° |
| 2026-05-08 04:49 | 40.01720 | -121.68304 | 22721 ft | 430 kts | 177° |
| 2026-05-08 04:49 | 39.98739 | -121.68050 | 22003 ft | 425 kts | 177° |
| 2026-05-08 04:50 | 39.95806 | -121.67799 | 21318 ft | 420 kts | 177° |
| 2026-05-08 04:50 | 39.92899 | -121.67553 | 20608 ft | 416 kts | 177° |
| 2026-05-08 04:50 | 39.90015 | -121.67310 | 19876 ft | 413 kts | 177° |
| 2026-05-08 04:50 | 39.87169 | -121.67069 | 19170 ft | 405 kts | 177° |
| 2026-05-08 04:51 | 39.84395 | -121.66831 | 18456 ft | 395 kts | 177° |
| 2026-05-08 04:51 | 39.81681 | -121.66598 | 17685 ft | 386 kts | 178° |
| 2026-05-08 04:51 | 39.79071 | -121.66377 | 16956 ft | 376 kts | 178° |
| 2026-05-08 04:51 | 39.76492 | -121.66158 | 16281 ft | 366 kts | 178° |
| 2026-05-08 04:52 | 39.73976 | -121.65946 | 15645 ft | 357 kts | 178° |
| 2026-05-08 04:52 | 39.71505 | -121.65739 | 15044 ft | 355 kts | 178° |
| 2026-05-08 04:52 | 39.69013 | -121.65532 | 14440 ft | 362 kts | 178° |
| 2026-05-08 04:52 | 39.66497 | -121.65322 | 13824 ft | 362 kts | 178° |
| 2026-05-08 04:53 | 39.63989 | -121.65113 | 13131 ft | 359 kts | 178° |
| 2026-05-08 04:53 | 39.61507 | -121.64908 | 12533 ft | 354 kts | 177° |
| 2026-05-08 04:53 | 39.59092 | -121.64705 | 12255 ft | 340 kts | 177° |
| 2026-05-08 04:53 | 39.56815 | -121.64512 | 12126 ft | 325 kts | 177° |
| 2026-05-08 04:54 | 39.54573 | -121.64320 | 12066 ft | 324 kts | 177° |
| 2026-05-08 04:54 | 39.52316 | -121.64127 | 12041 ft | 325 kts | 177° |
| 2026-05-08 04:54 | 39.50053 | -121.63936 | 11984 ft | 327 kts | 177° |
| 2026-05-08 04:54 | 39.47768 | -121.63745 | 11637 ft | 328 kts | 177° |
| 2026-05-08 04:55 | 39.45503 | -121.63556 | 11311 ft | 324 kts | 177° |
| 2026-05-08 04:55 | 39.43264 | -121.63368 | 11011 ft | 320 kts | 176° |
| 2026-05-08 04:55 | 39.41058 | -121.63184 | 10735 ft | 312 kts | 176° |
| 2026-05-08 04:55 | 39.38960 | -121.63010 | 10552 ft | 299 kts | 176° |
| 2026-05-08 04:56 | 39.36919 | -121.62838 | 10380 ft | 287 kts | 176° |
| 2026-05-08 04:56 | 39.34969 | -121.62674 | 10134 ft | 278 kts | 176° |
| 2026-05-08 04:56 | 39.33034 | -121.62512 | 9691 ft | 278 kts | 176° |
| 2026-05-08 04:56 | 39.31116 | -121.62349 | 9298 ft | 275 kts | 176° |
| 2026-05-08 04:57 | 39.29218 | -121.62186 | 8957 ft | 273 kts | 176° |
| 2026-05-08 04:57 | 39.27314 | -121.62023 | 8650 ft | 275 kts | 176° |
| 2026-05-08 04:57 | 39.25397 | -121.61859 | 8378 ft | 277 kts | 176° |
| 2026-05-08 04:57 | 39.23468 | -121.61697 | 8094 ft | 280 kts | 176° |
| 2026-05-08 04:58 | 39.21512 | -121.61533 | 7706 ft | 282 kts | 176° |
| 2026-05-08 04:58 | 39.19556 | -121.61370 | 7308 ft | 281 kts | 176° |
| 2026-05-08 04:58 | 39.17628 | -121.61210 | 7126 ft | 273 kts | 177° |
| 2026-05-08 04:58 | 39.15732 | -121.61054 | 6949 ft | 274 kts | 177° |
| 2026-05-08 04:59 | 39.13818 | -121.60896 | 6741 ft | 276 kts | 177° |
| 2026-05-08 04:59 | 39.11916 | -121.60740 | 6493 ft | 278 kts | 177° |
| 2026-05-08 04:59 | 39.09979 | -121.60580 | 6188 ft | 278 kts | 177° |
| 2026-05-08 04:59 | 39.08049 | -121.60422 | 5863 ft | 277 kts | 177° |
| 2026-05-08 05:00 | 39.06129 | -121.60264 | 5543 ft | 276 kts | 177° |
| 2026-05-08 05:00 | 39.04217 | -121.60108 | 5239 ft | 275 kts | 176° |
| 2026-05-08 05:00 | 39.02312 | -121.59951 | 4936 ft | 274 kts | 176° |
| 2026-05-08 05:00 | 39.00405 | -121.59795 | 4645 ft | 274 kts | 176° |
| 2026-05-08 05:01 | 38.98507 | -121.59645 | 4346 ft | 272 kts | 178° |
| 2026-05-08 05:01 | 38.96632 | -121.59599 | 4121 ft | 267 kts | 180° |
| 2026-05-08 05:01 | 38.94777 | -121.59631 | 3899 ft | 265 kts | 182° |
| 2026-05-08 05:01 | 38.92938 | -121.59687 | 3678 ft | 264 kts | 182° |
| 2026-05-08 05:02 | 38.91143 | -121.59744 | 3534 ft | 256 kts | 182° |
| 2026-05-08 05:02 | 38.89385 | -121.59796 | 3343 ft | 248 kts | 182° |
| 2026-05-08 05:02 | 38.87678 | -121.59839 | 3125 ft | 242 kts | 181° |
| 2026-05-08 05:02 | 38.86014 | -121.59882 | 2912 ft | 235 kts | 181° |
| 2026-05-08 05:03 | 38.84420 | -121.59918 | 2729 ft | 222 kts | 180° |
| 2026-05-08 05:03 | 38.82926 | -121.59947 | 2546 ft | 206 kts | 180° |
| 2026-05-08 05:03 | 38.81565 | -121.59975 | 2334 ft | 191 kts | 179° |
| 2026-05-08 05:03 | 38.80272 | -121.59996 | 2101 ft | 179 kts | 180° |
| 2026-05-08 05:04 | 38.79061 | -121.60017 | 1824 ft | 169 kts | 179° |
| 2026-05-08 05:04 | 38.77941 | -121.60026 | 1652 ft | 153 kts | 179° |
| 2026-05-08 05:04 | 38.76912 | -121.60031 | 1409 ft | 143 kts | 180° |
| 2026-05-08 05:04 | 38.75948 | -121.60038 | 1237 ft | 132 kts | 180° |
| 2026-05-08 05:05 | 38.75032 | -121.60042 | 923 ft | 133 kts | 181° |
| 2026-05-08 05:05 | 38.74119 | -121.60038 | 717 ft | 130 kts | 181° |
| 2026-05-08 05:05 | 38.73203 | -121.60064 | 453 ft | 134 kts | 182° |
| 2026-05-08 05:05 | 38.72288 | -121.60057 | 243 ft | 131 kts | 179° |
| 2026-05-08 05:06 | 38.71405 | -121.60086 | 91 ft | 124 kts | 181° |
| 2026-05-08 05:06 | 38.70575 | -121.60105 | 37 ft | 112 kts | 179° |
| 2026-05-08 05:06 | 38.69867 | -121.60115 | 25 ft | 84 kts | 181° |
| 2026-05-08 05:06 | 38.69428 | -121.60122 | 23 ft | 38 kts | 180° |
| 2026-05-08 05:07 | 38.69224 | -121.60125 | 24 ft | 27 kts | 182° |
| 2026-05-08 05:07 | 38.69120 | -121.60130 | 25 ft | 10 kts | 182° |
| 2026-05-08 05:07 | 38.69076 | -121.60112 | 26 ft | 5 kts | 137° |
| 2026-05-08 05:07 | 38.69059 | -121.60059 | 27 ft | 8 kts | 96° |
| 2026-05-08 05:08 | 38.69058 | -121.59971 | 24 ft | 11 kts | 89° |
| 2026-05-08 05:08 | 38.69059 | -121.59868 | 24 ft | 4 kts | 90° |
| 2026-05-08 05:08 | 38.69059 | -121.59867 | 24 ft | 0 kts | 90° |
| 2026-05-08 05:09 | 38.69059 | -121.59864 | 24 ft | 1 kts | 82° |
| 2026-05-08 05:10 | 38.69064 | -121.59856 | 24 ft | 2 kts | 49° |
| 2026-05-08 05:10 | 38.69082 | -121.59856 | 25 ft | 2 kts | 329° |
| 2026-05-08 05:10 | 38.69101 | -121.59870 | 26 ft | 4 kts | 337° |
| 2026-05-08 05:11 | 38.69135 | -121.59873 | 24 ft | 6 kts | 1° |
| 2026-05-08 05:11 | 38.69186 | -121.59872 | 24 ft | 9 kts | 1° |
| 2026-05-08 05:11 | 38.69254 | -121.59870 | 24 ft | 11 kts | 1° |
| 2026-05-08 05:11 | 38.69335 | -121.59868 | 24 ft | 13 kts | 1° |
| 2026-05-08 05:12 | 38.69408 | -121.59867 | 24 ft | 7 kts | 1° |
| 2026-05-08 05:12 | 38.69448 | -121.59838 | 26 ft | 7 kts | 65° |
| 2026-05-08 05:12 | 38.69463 | -121.59767 | 24 ft | 9 kts | 84° |
| 2026-05-08 05:12 | 38.69464 | -121.59681 | 24 ft | 7 kts | 90° |
| 2026-05-08 05:13 | 38.69473 | -121.59626 | 24 ft | 6 kts | 53° |
| 2026-05-08 05:13 | 38.69517 | -121.59603 | 25 ft | 6 kts | 9° |
| 2026-05-08 05:13 | 38.69541 | -121.59590 | 25 ft | 1 kts | 38° |
| 2026-05-08 05:13 | 38.69548 | -121.59575 | 27 ft | 2 kts | 70° |
| 2026-05-08 05:14 | 38.69547 | -121.59546 | 24 ft | 4 kts | 101° |
| 2026-05-08 05:14 | 38.69547 | -121.59544 | 24 ft | 0 kts | 100° |
| 2026-05-08 05:14 | 38.69547 | -121.59543 | 24 ft | 0 kts | 100° |
| 2026-05-08 05:15 | 38.69551 | -121.59543 | 24 ft | 0 kts | 101° |